H160 KFLL-KPBI
Flight info
| Callsign | H160 |
|---|---|
| Flight time | N/A |
| Altitude | 5000 |
| Route | UGLEE |
| Aircraft | H160/L-SBDGRY/S |
Departure
| Time | N/A |
|---|---|
| Airport | Fort Lauderdale Hollywood International Airport (KFLL) |
Arrival
| Time | 2026-05-08 02:24 |
|---|---|
| Airport | Palm Beach International Airport (KPBI) |
| Time | Latitude | Longitude | Altitude | Speed | Heading |
|---|---|---|---|---|---|
| 2026-05-08 01:59 | 26.07881 | -80.15446 | 12 ft | 0 kts | 180° |
| 2026-05-08 02:06 | 26.07873 | -80.15444 | 32 ft | 6 kts | 158° |
| 2026-05-08 02:07 | 26.07765 | -80.15385 | 163 ft | 36 kts | 160° |
| 2026-05-08 02:07 | 26.07400 | -80.15206 | 152 ft | 74 kts | 153° |
| 2026-05-08 02:07 | 26.07027 | -80.14882 | 204 ft | 61 kts | 126° |
| 2026-05-08 02:07 | 26.07077 | -80.14605 | 214 ft | 46 kts | 36° |
| 2026-05-08 02:08 | 26.07420 | -80.14526 | 248 ft | 46 kts | 13° |
| 2026-05-08 02:08 | 26.07840 | -80.14518 | 342 ft | 80 kts | 4° |
| 2026-05-08 02:08 | 26.08524 | -80.14507 | 375 ft | 115 kts | 8° |
| 2026-05-08 02:08 | 26.09435 | -80.14487 | 398 ft | 144 kts | 5° |
| 2026-05-08 02:09 | 26.10438 | -80.14434 | 432 ft | 142 kts | 7° |
| 2026-05-08 02:09 | 26.11445 | -80.14354 | 421 ft | 151 kts | 9° |
| 2026-05-08 02:09 | 26.12469 | -80.14253 | 423 ft | 145 kts | 7° |
| 2026-05-08 02:09 | 26.13498 | -80.14146 | 427 ft | 146 kts | 8° |
| 2026-05-08 02:10 | 26.14511 | -80.14040 | 428 ft | 146 kts | 8° |
| 2026-05-08 02:10 | 26.15521 | -80.13922 | 434 ft | 147 kts | 10° |
| 2026-05-08 02:10 | 26.16560 | -80.13792 | 425 ft | 150 kts | 11° |
| 2026-05-08 02:10 | 26.17566 | -80.13663 | 427 ft | 143 kts | 10° |
| 2026-05-08 02:11 | 26.18552 | -80.13544 | 426 ft | 143 kts | 9° |
| 2026-05-08 02:11 | 26.19553 | -80.13421 | 430 ft | 142 kts | 12° |
| 2026-05-08 02:11 | 26.20542 | -80.13299 | 430 ft | 143 kts | 12° |
| 2026-05-08 02:11 | 26.21537 | -80.13179 | 435 ft | 140 kts | 12° |
| 2026-05-08 02:12 | 26.22528 | -80.13061 | 409 ft | 149 kts | 11° |
| 2026-05-08 02:12 | 26.23522 | -80.12941 | 415 ft | 146 kts | 10° |
| 2026-05-08 02:12 | 26.24553 | -80.12819 | 429 ft | 145 kts | 11° |
| 2026-05-08 02:12 | 26.25576 | -80.12692 | 432 ft | 148 kts | 10° |
| 2026-05-08 02:13 | 26.26589 | -80.12566 | 432 ft | 145 kts | 12° |
| 2026-05-08 02:13 | 26.27506 | -80.12234 | 310 ft | 135 kts | 42° |
| 2026-05-08 02:13 | 26.28046 | -80.11460 | 286 ft | 118 kts | 69° |
| 2026-05-08 02:13 | 26.28394 | -80.10695 | 344 ft | 105 kts | 68° |
| 2026-05-08 02:14 | 26.28781 | -80.10003 | 281 ft | 113 kts | 60° |
| 2026-05-08 02:14 | 26.29281 | -80.09285 | 350 ft | 122 kts | 55° |
| 2026-05-08 02:14 | 26.29844 | -80.08546 | 371 ft | 133 kts | 57° |
| 2026-05-08 02:14 | 26.30463 | -80.07751 | 437 ft | 129 kts | 32° |
| 2026-05-08 02:15 | 26.31357 | -80.07592 | 424 ft | 144 kts | 8° |
| 2026-05-08 02:15 | 26.32393 | -80.07447 | 324 ft | 156 kts | 15° |
| 2026-05-08 02:15 | 26.33346 | -80.07122 | 435 ft | 107 kts | 17° |
| 2026-05-08 02:15 | 26.34139 | -80.06946 | 400 ft | 127 kts | 12° |
| 2026-05-08 02:16 | 26.35098 | -80.06807 | 250 ft | 132 kts | 6° |
| 2026-05-08 02:16 | 26.35922 | -80.06672 | 406 ft | 117 kts | 18° |
| 2026-05-08 02:16 | 26.36824 | -80.06554 | 426 ft | 148 kts | 2° |
| 2026-05-08 02:16 | 26.37897 | -80.06654 | 480 ft | 154 kts | 354° |
| 2026-05-08 02:17 | 26.38929 | -80.06774 | 470 ft | 148 kts | 5° |
| 2026-05-08 02:17 | 26.39963 | -80.06627 | 480 ft | 150 kts | 15° |
| 2026-05-08 02:17 | 26.40982 | -80.06338 | 476 ft | 150 kts | 20° |
| 2026-05-08 02:17 | 26.41992 | -80.06035 | 474 ft | 150 kts | 17° |
| 2026-05-08 02:18 | 26.42981 | -80.05820 | 461 ft | 150 kts | 14° |
| 2026-05-08 02:18 | 26.44029 | -80.05638 | 477 ft | 155 kts | 13° |
| 2026-05-08 02:18 | 26.45092 | -80.05435 | 484 ft | 153 kts | 13° |
| 2026-05-08 02:18 | 26.46139 | -80.05227 | 466 ft | 157 kts | 14° |
| 2026-05-08 02:19 | 26.47194 | -80.05020 | 479 ft | 153 kts | 14° |
| 2026-05-08 02:19 | 26.48252 | -80.04821 | 479 ft | 157 kts | 12° |
| 2026-05-08 02:19 | 26.49300 | -80.04608 | 479 ft | 152 kts | 14° |
| 2026-05-08 02:19 | 26.50346 | -80.04393 | 488 ft | 151 kts | 13° |
| 2026-05-08 02:20 | 26.51376 | -80.04178 | 488 ft | 151 kts | 12° |
| 2026-05-08 02:20 | 26.52408 | -80.03980 | 488 ft | 152 kts | 11° |
| 2026-05-08 02:20 | 26.53446 | -80.03900 | 494 ft | 147 kts | 5° |
| 2026-05-08 02:20 | 26.54486 | -80.03910 | 477 ft | 151 kts | 1° |
| 2026-05-08 02:21 | 26.55524 | -80.03945 | 469 ft | 152 kts | 1° |
| 2026-05-08 02:21 | 26.56588 | -80.03996 | 500 ft | 148 kts | 0° |
| 2026-05-08 02:21 | 26.57624 | -80.04034 | 485 ft | 154 kts | 1° |
| 2026-05-08 02:21 | 26.58691 | -80.04070 | 481 ft | 157 kts | 0° |
| 2026-05-08 02:22 | 26.59771 | -80.04088 | 492 ft | 153 kts | 2° |
| 2026-05-08 02:22 | 26.60824 | -80.04094 | 476 ft | 152 kts | 2° |
| 2026-05-08 02:22 | 26.61871 | -80.04102 | 490 ft | 149 kts | 4° |
| 2026-05-08 02:22 | 26.62927 | -80.04116 | 493 ft | 152 kts | 2° |
| 2026-05-08 02:23 | 26.63984 | -80.04132 | 485 ft | 152 kts | 2° |
| 2026-05-08 02:23 | 26.65027 | -80.04136 | 479 ft | 147 kts | 5° |
| 2026-05-08 02:23 | 26.65986 | -80.04078 | 532 ft | 126 kts | 13° |
| 2026-05-08 02:23 | 26.66767 | -80.03912 | 508 ft | 100 kts | 30° |
| 2026-05-08 02:24 | 26.67320 | -80.03629 | 391 ft | 72 kts | 350° |
| 2026-05-08 02:24 | 26.67657 | -80.03838 | 245 ft | 33 kts | 19° |
| 2026-05-08 02:24 | 26.67765 | -80.03682 | 215 ft | 22 kts | 75° |
| 2026-05-08 02:24 | 26.67734 | -80.03738 | 266 ft | 28 kts | 213° |
| 2026-05-08 02:25 | 26.67645 | -80.04124 | 193 ft | 82 kts | 265° |
| 2026-05-08 02:25 | 26.67622 | -80.04883 | 192 ft | 103 kts | 263° |
| 2026-05-08 02:25 | 26.67795 | -80.05637 | 269 ft | 98 kts | 295° |
| 2026-05-08 02:25 | 26.68034 | -80.06215 | 352 ft | 72 kts | 282° |
| 2026-05-08 02:26 | 26.68146 | -80.06813 | 374 ft | 86 kts | 266° |
| 2026-05-08 02:26 | 26.68142 | -80.07516 | 335 ft | 95 kts | 262° |
| 2026-05-08 02:26 | 26.67995 | -80.08091 | 287 ft | 52 kts | 252° |
| 2026-05-08 02:26 | 26.67942 | -80.08345 | 148 ft | 22 kts | 254° |
| 2026-05-08 02:27 | 26.67930 | -80.08464 | 121 ft | 6 kts | 253° |
| 2026-05-08 02:27 | 26.67946 | -80.08442 | 65 ft | 21 kts | 114° |
| 2026-05-08 02:27 | 26.67934 | -80.08330 | 19 ft | 3 kts | 163° |
| 2026-05-08 02:27 | 26.67933 | -80.08330 | 18 ft | 0 kts | 161° |
| 2026-05-08 02:28 | 26.67914 | -80.08313 | 27 ft | 8 kts | 88° |
| 2026-05-08 02:28 | 26.67955 | -80.08217 | 23 ft | 17 kts | 181° |
| 2026-05-08 02:28 | 26.67971 | -80.08174 | 24 ft | 3 kts | 235° |
| 2026-05-08 02:29 | 26.67920 | -80.08206 | 31 ft | 15 kts | 221° |
| 2026-05-08 02:29 | 26.67969 | -80.08312 | 65 ft | 19 kts | 210° |
| 2026-05-08 02:29 | 26.68005 | -80.08272 | 53 ft | 13 kts | 143° |
| 2026-05-08 02:29 | 26.67972 | -80.08215 | 22 ft | 5 kts | 143° |
| 2026-05-08 02:30 | 26.67923 | -80.08206 | 31 ft | 7 kts | 274° |
| 2026-05-08 02:30 | 26.67918 | -80.08211 | 19 ft | 0 kts | 265° |
| 2026-05-08 02:31 | 26.67920 | -80.08221 | 32 ft | 8 kts | 264° |
| 2026-05-08 02:31 | 26.67921 | -80.08356 | 53 ft | 25 kts | 265° |
| 2026-05-08 02:31 | 26.67917 | -80.08578 | 56 ft | 32 kts | 264° |
| 2026-05-08 02:32 | 26.67829 | -80.08822 | 56 ft | 34 kts | 260° |
| 2026-05-08 02:32 | 26.67806 | -80.09033 | 28 ft | 15 kts | 265° |
| 2026-05-08 02:32 | 26.67798 | -80.09046 | 19 ft | 0 kts | 248° |
| 2026-05-08 02:32 | 26.67804 | -80.09079 | 29 ft | 5 kts | 270° |
| 2026-05-08 02:33 | 26.67806 | -80.09127 | 34 ft | 7 kts | 285° |
| 2026-05-08 02:33 | 26.67823 | -80.09182 | 19 ft | 0 kts | 281° |
| 2026-05-08 02:33 | 26.67856 | -80.09221 | 23 ft | 18 kts | 319° |
| 2026-05-08 02:33 | 26.67898 | -80.09262 | 49 ft | 13 kts | 335° |
| 2026-05-08 02:34 | 26.68028 | -80.09546 | 158 ft | 43 kts | 210° |
| 2026-05-08 02:34 | 26.68001 | -80.09614 | 116 ft | 26 kts | 87° |
| 2026-05-08 02:34 | 26.67963 | -80.09380 | 180 ft | 36 kts | 126° |
| 2026-05-08 02:34 | 26.67879 | -80.09219 | 292 ft | 11 kts | 269° |
| 2026-05-08 02:35 | 26.67840 | -80.09225 | 118 ft | 23 kts | 121° |
| 2026-05-08 02:35 | 26.67909 | -80.09153 | 301 ft | 26 kts | 262° |
| 2026-05-08 02:35 | 26.67941 | -80.09301 | 66 ft | 23 kts | 259° |
| 2026-05-08 02:35 | 26.67959 | -80.09321 | 145 ft | 16 kts | 260° |
| 2026-05-08 02:36 | 26.67974 | -80.09423 | 259 ft | 27 kts | 260° |
| 2026-05-08 02:36 | 26.67977 | -80.09402 | 50 ft | 31 kts | 78° |
| 2026-05-08 02:36 | 26.68038 | -80.09326 | 24 ft | 6 kts | 209° |
| 2026-05-08 02:36 | 26.67998 | -80.09370 | 21 ft | 9 kts | 247° |
| 2026-05-08 02:37 | 26.67971 | -80.09405 | 38 ft | 13 kts | 246° |
| 2026-05-08 02:37 | 26.67965 | -80.09432 | 35 ft | 1 kts | 245° |
| 2026-05-08 02:37 | 26.67957 | -80.09442 | 20 ft | 4 kts | 248° |
| 2026-05-08 02:37 | 26.67957 | -80.09443 | 19 ft | 0 kts | 249° |